Time;durP1;ratioP1;P1;durP2;ratioP2;P2;SDS_P1;SDS_P2;PMS_P1;PMS_P2;Temp;Humidity;BMP_temperature;BMP_pressure;BME280_temperature;BME280_humidity;BME280_pressure;Samples;Min_cycle;Max_cycle;Signal;HPM_P1;HPM_P2
2021/12/08 00:00:55;;;;;;;24.50;9.43;;;2.10;99.90;;;;;;5035352;28;20500;-54
2021/12/08 00:03:23;;;;;;;22.40;8.57;;;2.10;99.90;;;;;;5038771;28;20444;-51
2021/12/08 00:05:51;;;;;;;22.93;9.57;;;2.10;99.90;;;;;;5038831;28;20488;-45
2021/12/08 00:08:20;;;;;;;11.70;6.10;;;2.10;99.90;;;;;;5039878;28;20469;-55
2021/12/08 00:13:02;;;;;;;20.33;11.30;;;2.10;99.90;;;;;;5039990;28;20469;-58
2021/12/08 00:13:40;;;;;;;18.20;8.70;;;2.00;99.90;;;;;;5040094;28;20528;-50
2021/12/08 00:16:11;;;;;;;21.70;10.40;;;2.10;99.90;;;;;;5040285;28;20477;-55
2021/12/08 00:18:44;;;;;;;26.80;10.73;;;2.10;99.90;;;;;;5040302;28;20426;-56
2021/12/08 00:21:11;;;;;;;23.37;9.60;;;2.10;99.90;;;;;;5039879;28;20505;-52
2021/12/08 00:23:38;;;;;;;20.40;8.40;;;2.00;99.90;;;;;;5039774;28;20482;-50
2021/12/08 00:26:05;;;;;;;22.90;9.40;;;2.10;99.90;;;;;;5039347;28;20568;-48
2021/12/08 00:28:32;;;;;;;21.60;8.60;;;2.10;99.90;;;;;;5039505;28;20493;-51
2021/12/08 00:31:01;;;;;;;22.70;8.73;;;2.10;99.90;;;;;;5039568;28;20445;-52
2021/12/08 00:33:31;;;;;;;17.83;8.50;;;2.10;99.90;;;;;;5039566;28;20449;-54
2021/12/08 00:36:00;;;;;;;14.53;8.27;;;2.10;99.90;;;;;;5039994;28;20500;-49
2021/12/08 00:38:28;;;;;;;17.67;8.60;;;2.10;99.90;;;;;;5039973;28;20461;-49
2021/12/08 00:40:55;;;;;;;16.47;7.40;;;2.00;99.90;;;;;;5039278;28;20447;-51
2021/12/08 00:43:23;;;;;;;25.77;9.27;;;2.00;99.90;;;;;;5039613;28;20442;-55
2021/12/08 00:45:49;;;;;;;14.40;7.77;;;2.00;99.90;;;;;;5039691;28;20421;-50
2021/12/08 00:48:16;;;;;;;13.43;7.87;;;2.00;99.90;;;;;;5039364;28;20885;-51
2021/12/08 00:50:45;;;;;;;22.30;10.50;;;2.00;99.90;;;;;;5039304;28;20445;-45
2021/12/08 00:53:12;;;;;;;24.97;11.87;;;2.00;99.90;;;;;;5039211;28;20480;-52
2021/12/08 00:55:39;;;;;;;20.40;7.97;;;2.00;99.90;;;;;;5038463;28;20481;-53
2021/12/08 00:58:07;;;;;;;24.23;11.00;;;2.00;99.90;;;;;;5039238;28;20473;-56
2021/12/08 01:00:37;;;;;;;19.00;8.40;;;1.90;99.90;;;;;;5038958;28;20437;-49
2021/12/08 01:03:05;;;;;;;19.83;10.03;;;1.90;99.90;;;;;;5038522;28;20417;-50
2021/12/08 01:05:35;;;;;;;20.90;10.10;;;1.90;99.90;;;;;;5038831;28;20477;-52
2021/12/08 01:08:04;;;;;;;21.70;10.20;;;1.80;99.90;;;;;;5039051;28;20545;-51
2021/12/08 01:10:31;;;;;;;14.27;6.53;;;1.80;99.90;;;;;;5038774;28;20458;-47
2021/12/08 01:12:58;;;;;;;17.37;7.83;;;1.90;99.90;;;;;;5037309;28;20429;-50
2021/12/08 01:15:28;;;;;;;15.03;7.27;;;1.90;99.90;;;;;;5038717;28;20477;-48
2021/12/08 01:17:55;;;;;;;21.20;9.17;;;1.90;99.90;;;;;;5038298;28;20497;-51
2021/12/08 01:20:23;;;;;;;23.83;9.27;;;1.90;99.90;;;;;;5038028;28;20464;-52
2021/12/08 01:22:50;;;;;;;15.80;8.77;;;1.90;99.90;;;;;;5038332;28;20504;-47
2021/12/08 01:25:18;;;;;;;17.80;7.23;;;1.80;99.90;;;;;;5038095;28;20444;-52
2021/12/08 01:27:45;;;;;;;18.23;7.83;;;1.70;99.90;;;;;;5037770;28;20538;-48
2021/12/08 01:30:13;;;;;;;20.00;9.17;;;1.70;99.90;;;;;;5038401;28;20461;-57
2021/12/08 01:32:40;;;;;;;18.50;6.90;;;1.70;99.90;;;;;;5038615;28;20488;-50
2021/12/08 01:35:08;;;;;;;16.23;9.27;;;1.70;99.90;;;;;;5038282;28;20506;-51
2021/12/08 01:37:35;;;;;;;19.77;10.67;;;1.60;99.90;;;;;;5038064;28;20444;-56
2021/12/08 01:40:04;;;;;;;18.07;10.87;;;1.70;99.90;;;;;;5038579;28;20429;-48
2021/12/08 01:42:41;;;;;;;23.57;10.10;;;1.70;99.90;;;;;;5037999;28;20444;-51
2021/12/08 01:47:53;;;;;;;21.07;8.93;;;1.70;99.90;;;;;;5038378;28;20504;-54
2021/12/08 01:50:20;;;;;;;15.20;6.70;;;1.70;99.90;;;;;;5038575;28;20479;-61
2021/12/08 01:52:47;;;;;;;27.43;9.80;;;1.60;99.90;;;;;;5037920;28;20421;-52
2021/12/08 01:55:16;;;;;;;27.00;9.57;;;1.60;99.90;;;;;;5037649;28;20460;-53
2021/12/08 01:57:47;;;;;;;9.37;6.67;;;1.50;99.90;;;;;;5037738;28;20440;-51
2021/12/08 02:00:18;;;;;;;15.60;9.17;;;1.50;99.90;;;;;;5037731;28;20456;-49
2021/12/08 02:02:47;;;;;;;22.03;11.43;;;1.60;99.90;;;;;;5037943;28;20441;-48
2021/12/08 02:05:14;;;;;;;14.43;7.40;;;1.60;99.90;;;;;;5037378;28;20472;-52
2021/12/08 02:07:41;;;;;;;13.60;8.53;;;1.60;99.90;;;;;;5037501;28;20496;-54
2021/12/08 02:10:09;;;;;;;20.33;9.90;;;1.60;99.90;;;;;;5037391;28;20449;-48
2021/12/08 02:12:40;;;;;;;27.53;11.43;;;1.60;99.90;;;;;;5037338;28;20465;-54
2021/12/08 02:15:14;;;;;;;17.17;8.30;;;1.60;99.90;;;;;;5037661;28;20485;-48
2021/12/08 02:17:50;;;;;;;23.13;9.23;;;1.60;99.90;;;;;;5037408;28;20513;-48
2021/12/08 02:20:18;;;;;;;20.97;8.13;;;1.60;99.90;;;;;;5037149;28;20508;-47
2021/12/08 02:22:46;;;;;;;15.60;7.93;;;1.60;99.90;;;;;;5037441;28;20443;-54
2021/12/08 02:25:16;;;;;;;16.60;9.40;;;1.70;99.90;;;;;;5037266;28;20459;-51
2021/12/08 02:27:45;;;;;;;29.13;10.67;;;1.70;99.90;;;;;;5036742;28;20515;-50
2021/12/08 02:30:22;;;;;;;23.13;8.80;;;1.70;99.90;;;;;;5037011;28;20496;-52
2021/12/08 02:46:52;;;;;;;17.13;7.03;;;1.60;99.90;;;;;;5036635;28;20432;-51
2021/12/08 02:49:21;;;;;;;13.37;8.00;;;1.50;99.90;;;;;;5036315;28;20517;-51
2021/12/08 02:51:50;;;;;;;18.47;9.17;;;1.40;99.90;;;;;;5036442;28;20440;-50
2021/12/08 02:54:19;;;;;;;19.57;6.83;;;1.40;99.90;;;;;;5036598;28;20468;-50
2021/12/08 02:56:45;;;;;;;16.87;9.13;;;1.40;99.90;;;;;;5036812;28;20471;-53
2021/12/08 02:59:13;;;;;;;11.03;3.80;;;1.40;99.90;;;;;;5036577;28;20472;-52
2021/12/08 03:01:40;;;;;;;19.47;7.63;;;1.40;99.90;;;;;;5035958;28;20527;-50
2021/12/08 03:04:09;;;;;;;24.47;6.70;;;1.50;99.90;;;;;;5036494;28;20445;-51
2021/12/08 03:06:36;;;;;;;26.00;10.27;;;1.40;99.90;;;;;;5036087;28;20471;-50
2021/12/08 03:09:05;;;;;;;12.47;6.30;;;1.50;99.90;;;;;;5036325;28;20488;-48
2021/12/08 03:11:35;;;;;;;15.73;8.47;;;1.50;99.90;;;;;;5036706;28;20464;-55
2021/12/08 03:14:06;;;;;;;18.03;8.93;;;1.50;99.90;;;;;;5036254;28;20532;-54
2021/12/08 03:16:36;;;;;;;17.87;7.40;;;1.50;99.90;;;;;;5036546;28;20467;-54
2021/12/08 03:19:03;;;;;;;20.13;7.83;;;1.50;99.90;;;;;;5036261;28;20449;-53
2021/12/08 03:21:32;;;;;;;15.10;7.97;;;1.50;99.90;;;;;;5036088;28;20472;-53
2021/12/08 03:24:22;;;;;;;24.53;9.70;;;1.60;99.90;;;;;;5036131;28;20484;-57
2021/12/08 03:26:57;;;;;;;22.63;9.00;;;1.50;99.90;;;;;;5036017;28;20432;-52
2021/12/08 03:29:30;;;;;;;12.80;7.10;;;1.50;99.90;;;;;;5035704;28;20524;-53
2021/12/08 03:32:05;;;;;;;16.10;8.13;;;1.40;99.90;;;;;;5035682;28;20429;-49
2021/12/08 03:34:35;;;;;;;29.87;10.47;;;1.50;99.90;;;;;;5035497;28;20466;-52
2021/12/08 03:37:02;;;;;;;18.30;8.03;;;1.50;99.90;;;;;;5035327;28;20452;-53
2021/12/08 03:39:29;;;;;;;19.27;9.47;;;1.50;99.90;;;;;;5035628;28;20425;-48
2021/12/08 03:41:57;;;;;;;12.50;7.63;;;1.50;99.90;;;;;;5035731;28;20441;-51
2021/12/08 03:44:23;;;;;;;29.10;12.00;;;1.50;99.90;;;;;;5035734;28;20457;-49
2021/12/08 03:46:52;;;;;;;18.07;10.63;;;1.50;99.90;;;;;;5035948;28;20444;-51
2021/12/08 03:49:19;;;;;;;13.27;7.20;;;1.50;99.90;;;;;;5035556;28;20488;-47
2021/12/08 03:51:46;;;;;;;30.47;11.47;;;1.50;99.90;;;;;;5035714;28;20763;-52
2021/12/08 03:54:13;;;;;;;23.10;10.20;;;1.50;99.90;;;;;;5035688;28;20448;-51
2021/12/08 03:56:42;;;;;;;22.70;7.40;;;1.50;99.90;;;;;;5036035;28;20522;-49
2021/12/08 03:59:10;;;;;;;21.43;8.93;;;1.50;99.90;;;;;;5035888;28;20417;-52
2021/12/08 04:01:37;;;;;;;17.33;9.40;;;1.50;99.90;;;;;;5029709;28;20953;-49
2021/12/08 04:04:07;;;;;;;12.67;6.67;;;1.50;99.90;;;;;;5014513;28;20449;-51
2021/12/08 04:06:41;;;;;;;18.57;8.50;;;1.50;99.90;;;;;;5014625;28;20477;-54
2021/12/08 04:09:16;;;;;;;11.53;7.30;;;1.50;99.90;;;;;;5014727;28;20473;-49
2021/12/08 04:11:44;;;;;;;22.77;8.90;;;1.50;99.90;;;;;;5014461;28;20869;-51
2021/12/08 04:14:16;;;;;;;21.10;10.07;;;1.50;99.90;;;;;;5014827;28;20450;-47
2021/12/08 04:16:47;;;;;;;13.53;6.83;;;1.40;99.90;;;;;;5014594;28;20445;-59
2021/12/08 04:19:15;;;;;;;19.07;8.70;;;1.50;99.90;;;;;;5014684;28;20536;-51
2021/12/08 04:21:43;;;;;;;18.03;9.23;;;1.50;99.90;;;;;;5014111;28;20841;-53
2021/12/08 04:24:10;;;;;;;26.90;9.93;;;1.50;99.90;;;;;;5014369;28;20445;-61
2021/12/08 04:26:40;;;;;;;25.00;10.70;;;1.60;99.90;;;;;;5014337;28;20449;-51
2021/12/08 04:29:09;;;;;;;21.13;9.03;;;1.60;99.90;;;;;;5014216;28;20534;-50
2021/12/08 04:31:39;;;;;;;25.10;10.87;;;1.60;99.90;;;;;;5014121;28;20476;-48
2021/12/08 04:34:13;;;;;;;21.10;6.93;;;1.70;99.90;;;;;;5014046;28;20913;-54
2021/12/08 04:36:45;;;;;;;17.60;6.50;;;1.60;99.90;;;;;;5014378;28;20450;-52
2021/12/08 04:39:20;;;;;;;16.53;9.77;;;1.70;99.90;;;;;;5014206;28;20442;-52
2021/12/08 04:41:53;;;;;;;15.13;7.60;;;1.60;99.90;;;;;;5014124;28;20481;-54
2021/12/08 04:44:28;;;;;;;23.83;10.17;;;1.60;99.90;;;;;;5013771;28;20984;-51
2021/12/08 04:47:21;;;;;;;19.33;10.83;;;1.60;99.90;;;;;;5013854;28;20971;-51
2021/12/08 04:50:26;;;;;;;21.20;8.57;;;1.50;99.90;;;;;;5017720;28;20504;-54
2021/12/08 04:53:02;;;;;;;15.37;9.33;;;1.50;99.90;;;;;;5017512;28;20877;-50
2021/12/08 05:01:24;;;;;;;17.40;9.90;;;1.60;99.90;;;;;;5017421;28;20811;-51
2021/12/08 05:04:34;;;;;;;9.07;4.90;;;1.60;99.90;;;;;;5017644;28;20437;-52
2021/12/08 05:07:17;;;;;;;30.83;7.03;;;1.60;99.90;;;;;;5017349;28;20460;-50
2021/12/08 05:09:46;;;;;;;12.33;7.03;;;1.60;99.90;;;;;;5017405;28;20500;-46
2021/12/08 05:12:17;;;;;;;14.67;6.87;;;1.60;99.90;;;;;;5017041;28;20495;-50
2021/12/08 05:14:47;;;;;;;17.23;8.27;;;1.60;99.90;;;;;;5017252;28;20441;-52
2021/12/08 05:17:22;;;;;;;13.23;7.50;;;1.60;99.90;;;;;;5017313;28;20465;-52
2021/12/08 05:20:06;;;;;;;21.50;10.20;;;1.60;99.90;;;;;;5017497;28;20468;-54
2021/12/08 05:22:36;;;;;;;15.03;5.60;;;1.50;99.90;;;;;;5016694;28;20470;-51
2021/12/08 05:25:08;;;;;;;20.97;9.67;;;1.50;99.90;;;;;;5016497;28;20465;-50
2021/12/08 05:27:40;;;;;;;21.67;10.80;;;1.60;99.90;;;;;;5016884;28;20430;-52
2021/12/08 05:30:11;;;;;;;15.60;8.13;;;1.60;99.90;;;;;;5016829;28;20469;-51
2021/12/08 05:32:38;;;;;;;12.80;8.13;;;1.60;99.90;;;;;;5016686;28;20479;-51
2021/12/08 05:35:10;;;;;;;16.87;9.00;;;1.60;99.90;;;;;;5016339;28;20989;-51
2021/12/08 05:37:38;;;;;;;24.33;10.30;;;1.60;99.90;;;;;;5016566;28;20488;-49
2021/12/08 05:40:09;;;;;;;16.10;7.03;;;1.50;99.90;;;;;;5017192;28;20871;-47
2021/12/08 05:42:37;;;;;;;16.83;8.50;;;1.50;99.90;;;;;;5016588;28;20914;-51
2021/12/08 05:45:08;;;;;;;18.70;9.13;;;1.50;99.90;;;;;;5018963;28;20966;-49
2021/12/08 05:47:35;;;;;;;17.50;8.03;;;1.50;99.90;;;;;;5024318;28;20426;-51
2021/12/08 05:50:04;;;;;;;11.50;5.57;;;1.50;99.90;;;;;;5032425;28;20492;-53
2021/12/08 05:52:32;;;;;;;21.63;7.93;;;1.50;99.90;;;;;;5037414;28;20441;-49
2021/12/08 05:54:59;;;;;;;12.90;8.43;;;1.40;99.90;;;;;;5037267;28;20460;-48
2021/12/08 05:57:29;;;;;;;18.33;12.07;;;1.40;99.90;;;;;;5037636;28;20433;-47
2021/12/08 05:59:57;;;;;;;23.37;10.13;;;1.40;99.90;;;;;;5030176;28;20438;-49
2021/12/08 06:02:27;;;;;;;11.03;6.80;;;1.40;99.90;;;;;;5030792;28;20469;-49
2021/12/08 06:04:53;;;;;;;19.03;9.07;;;1.40;99.90;;;;;;5030947;28;20580;-49
2021/12/08 06:07:22;;;;;;;13.70;6.07;;;1.30;99.90;;;;;;5036520;28;20461;-52
2021/12/08 06:09:50;;;;;;;15.57;8.27;;;1.30;99.90;;;;;;5037162;28;20512;-53
2021/12/08 06:12:18;;;;;;;18.27;7.37;;;1.30;99.90;;;;;;5037442;28;20441;-54
2021/12/08 06:14:45;;;;;;;24.23;9.77;;;1.30;99.90;;;;;;5037553;28;20473;-48
2021/12/08 06:17:14;;;;;;;12.60;7.50;;;1.30;99.90;;;;;;5037058;28;20446;-50
2021/12/08 06:19:43;;;;;;;26.00;9.50;;;1.30;99.90;;;;;;5037729;28;20454;-50
2021/12/08 06:22:12;;;;;;;15.10;9.03;;;1.40;99.90;;;;;;5037397;28;20429;-56
2021/12/08 06:24:39;;;;;;;14.10;6.97;;;1.40;99.90;;;;;;5037320;28;20519;-52
2021/12/08 06:27:09;;;;;;;18.30;8.30;;;1.40;99.90;;;;;;5037171;28;20469;-48
2021/12/08 06:29:36;;;;;;;31.20;7.93;;;1.40;99.90;;;;;;5037312;28;20488;-49
2021/12/08 06:32:06;;;;;;;18.53;7.93;;;1.40;99.90;;;;;;5036598;28;20464;-48
2021/12/08 06:34:35;;;;;;;25.10;8.67;;;1.40;99.90;;;;;;5036745;28;20453;-52
2021/12/08 06:37:06;;;;;;;24.37;10.67;;;1.40;99.90;;;;;;5037293;28;20436;-52
2021/12/08 06:39:37;;;;;;;16.00;9.43;;;1.40;99.90;;;;;;5037238;28;20485;-51
2021/12/08 06:42:12;;;;;;;16.30;6.50;;;1.40;99.90;;;;;;5037319;28;20468;-53
2021/12/08 06:44:43;;;;;;;15.97;6.40;;;1.40;99.90;;;;;;5037529;28;20465;-56
2021/12/08 06:47:16;;;;;;;17.50;7.10;;;1.40;99.90;;;;;;5036913;28;20429;-50
2021/12/08 06:49:45;;;;;;;16.83;7.77;;;1.40;99.90;;;;;;5037273;28;20473;-51
2021/12/08 06:52:15;;;;;;;13.20;6.63;;;1.40;99.90;;;;;;5036561;28;20434;-46
2021/12/08 06:54:47;;;;;;;17.93;8.47;;;1.40;99.90;;;;;;5037030;28;20480;-52
2021/12/08 06:57:22;;;;;;;24.63;9.63;;;1.30;99.90;;;;;;5036173;28;20941;-50
2021/12/08 06:59:58;;;;;;;18.07;9.10;;;1.40;99.90;;;;;;5036059;28;20498;-53
2021/12/08 07:05:28;;;;;;;17.47;10.00;;;1.50;99.90;;;;;;5030246;28;20424;-54
2021/12/08 07:07:58;;;;;;;19.93;9.17;;;1.40;99.90;;;;;;5036312;28;20433;-50
2021/12/08 07:10:32;;;;;;;28.70;11.33;;;1.40;99.90;;;;;;5035090;28;20469;-53
2021/12/08 07:13:09;;;;;;;20.00;9.20;;;1.40;99.90;;;;;;5035491;28;20432;-55
2021/12/08 07:15:40;;;;;;;17.80;8.23;;;1.30;99.90;;;;;;5035808;28;20476;-52
2021/12/08 07:18:10;;;;;;;13.47;7.27;;;1.30;99.90;;;;;;5035880;28;20463;-54
2021/12/08 07:20:44;;;;;;;17.83;7.30;;;1.30;99.90;;;;;;5035694;28;20430;-54
2021/12/08 07:23:15;;;;;;;22.37;9.23;;;1.30;99.90;;;;;;5035082;28;20808;-50
2021/12/08 07:25:43;;;;;;;18.97;8.90;;;1.30;99.90;;;;;;5035626;28;20430;-48
2021/12/08 07:28:13;;;;;;;25.47;10.47;;;1.40;99.90;;;;;;5035338;28;20462;-51
2021/12/08 07:30:44;;;;;;;21.67;8.37;;;1.40;99.90;;;;;;5035321;28;20481;-48
2021/12/08 07:33:13;;;;;;;9.20;6.93;;;1.40;99.90;;;;;;5035600;28;20488;-47
2021/12/08 07:35:46;;;;;;;16.17;9.23;;;1.50;99.90;;;;;;5035447;28;20441;-45
2021/12/08 07:38:16;;;;;;;24.50;10.70;;;1.50;99.90;;;;;;5034976;28;20453;-53
2021/12/08 07:40:49;;;;;;;27.07;12.37;;;1.50;99.90;;;;;;5034752;28;20441;-48
2021/12/08 07:43:21;;;;;;;26.33;10.00;;;1.50;99.90;;;;;;5034743;28;20430;-46
2021/12/08 07:45:51;;;;;;;17.70;9.37;;;1.50;99.90;;;;;;5034946;28;20461;-47
2021/12/08 07:48:22;;;;;;;21.53;7.90;;;1.60;99.90;;;;;;5035022;28;20438;-49
2021/12/08 07:50:53;;;;;;;22.53;11.97;;;1.60;99.90;;;;;;5034500;28;20495;-49
2021/12/08 07:53:23;;;;;;;24.80;10.13;;;1.60;99.90;;;;;;5032714;28;20444;-51
2021/12/08 07:55:54;;;;;;;30.43;11.37;;;1.60;99.90;;;;;;5034652;28;20441;-51
2021/12/08 07:58:22;;;;;;;21.83;7.80;;;1.70;99.90;;;;;;5034223;28;20453;-48
2021/12/08 08:00:51;;;;;;;13.73;6.50;;;1.60;99.90;;;;;;5035702;28;20440;-47
2021/12/08 08:03:20;;;;;;;16.37;7.13;;;1.60;99.90;;;;;;5036086;28;20730;-48
2021/12/08 08:05:50;;;;;;;13.80;8.17;;;1.70;99.90;;;;;;5035579;28;20452;-48
2021/12/08 08:08:20;;;;;;;20.63;8.13;;;1.60;99.90;;;;;;5034223;28;20522;-48
2021/12/08 08:10:50;;;;;;;18.13;7.67;;;1.70;99.90;;;;;;5034105;28;20508;-52
2021/12/08 08:13:19;;;;;;;21.30;9.20;;;1.70;99.90;;;;;;5034211;28;20462;-50
2021/12/08 08:15:52;;;;;;;29.47;9.77;;;1.70;99.90;;;;;;5034043;28;20433;-49
2021/12/08 08:18:24;;;;;;;18.50;8.97;;;1.80;99.90;;;;;;5034411;28;20469;-51
2021/12/08 08:20:56;;;;;;;26.97;9.87;;;1.80;99.90;;;;;;5034271;28;20429;-49
2021/12/08 08:23:31;;;;;;;20.53;8.80;;;1.80;99.90;;;;;;5037288;28;20507;-48
2021/12/08 08:26:00;;;;;;;20.50;8.50;;;1.90;99.90;;;;;;5037727;28;20460;-50
2021/12/08 08:28:27;;;;;;;16.73;7.30;;;1.90;99.90;;;;;;5038150;28;20531;-54
2021/12/08 08:31:01;;;;;;;21.63;9.10;;;1.90;99.90;;;;;;5038180;28;20464;-48
2021/12/08 08:33:31;;;;;;;19.70;9.50;;;2.00;99.90;;;;;;5037367;28;20559;-53
2021/12/08 08:36:04;;;;;;;22.00;8.30;;;2.00;99.90;;;;;;5037414;28;20532;-49
2021/12/08 08:38:34;;;;;;;18.00;7.33;;;2.00;99.90;;;;;;5038661;28;20469;-54
2021/12/08 08:41:08;;;;;;;21.97;10.80;;;2.00;99.90;;;;;;5039964;28;20449;-50
2021/12/08 08:43:35;;;;;;;24.40;11.13;;;2.10;99.90;;;;;;5039823;28;20457;-51
2021/12/08 08:46:08;;;;;;;19.30;9.43;;;2.00;99.90;;;;;;5039916;28;20459;-45
2021/12/08 08:48:39;;;;;;;27.47;10.13;;;2.10;99.90;;;;;;5039798;28;20453;-53
2021/12/08 08:51:09;;;;;;;24.30;10.50;;;2.10;99.90;;;;;;5039979;28;20487;-50
2021/12/08 08:53:41;;;;;;;28.97;8.47;;;2.10;99.90;;;;;;5039716;28;20473;-49
2021/12/08 08:56:10;;;;;;;22.17;9.80;;;2.10;99.90;;;;;;5039837;28;20470;-53
2021/12/08 08:58:39;;;;;;;24.00;8.20;;;2.20;99.90;;;;;;5040081;28;20433;-50
2021/12/08 09:01:14;;;;;;;28.13;9.90;;;2.20;99.90;;;;;;5039695;28;20442;-47
2021/12/08 09:03:45;;;;;;;19.10;7.80;;;2.30;99.90;;;;;;5039132;28;20432;-54
2021/12/08 09:06:15;;;;;;;34.90;10.30;;;2.30;99.90;;;;;;5039601;28;20414;-50
2021/12/08 09:08:44;;;;;;;26.87;9.87;;;2.30;99.90;;;;;;5039121;28;20480;-49
2021/12/08 09:11:15;;;;;;;26.97;11.80;;;2.30;99.90;;;;;;5039818;28;20556;-49
2021/12/08 09:13:50;;;;;;;20.77;8.33;;;2.30;99.90;;;;;;5039711;28;20430;-46
2021/12/08 09:16:21;;;;;;;22.67;10.67;;;2.30;99.90;;;;;;5039422;28;20496;-48
2021/12/08 09:18:57;;;;;;;23.47;8.63;;;2.30;99.90;;;;;;5025105;28;20445;-49
2021/12/08 09:21:31;;;;;;;33.37;11.00;;;2.30;99.90;;;;;;5022150;28;20447;-48
2021/12/08 09:24:06;;;;;;;28.23;11.63;;;2.30;99.90;;;;;;5035917;28;20449;-46
2021/12/08 09:26:36;;;;;;;17.37;8.50;;;2.30;99.90;;;;;;5036198;28;20441;-47
2021/12/08 09:29:08;;;;;;;27.33;8.77;;;2.30;99.90;;;;;;5036112;28;20452;-49
2021/12/08 09:31:39;;;;;;;28.17;9.87;;;2.40;99.90;;;;;;5036308;28;20480;-46
2021/12/08 09:34:12;;;;;;;24.63;10.30;;;2.50;99.90;;;;;;5034244;28;20438;-45
2021/12/08 09:43:25;;;;;;;22.30;9.40;;;2.60;99.90;;;;;;5426953;23;20461;-48
2021/12/08 09:45:57;;;;;;;20.00;7.93;;;2.60;99.90;;;;;;5097791;28;20493;-49
2021/12/08 09:48:29;;;;;;;17.87;8.23;;;2.60;99.90;;;;;;5097284;28;20488;-53
2021/12/08 09:50:59;;;;;;;35.00;11.07;;;2.70;99.90;;;;;;5097727;28;20471;-48
2021/12/08 09:53:27;;;;;;;24.60;10.03;;;2.70;99.90;;;;;;5097337;28;20451;-47
2021/12/08 09:55:55;;;;;;;21.23;8.90;;;2.70;99.90;;;;;;5097323;28;20442;-49
2021/12/08 09:58:22;;;;;;;22.53;8.57;;;2.70;99.90;;;;;;5097685;28;20453;-47
2021/12/08 10:00:55;;;;;;;31.23;12.43;;;2.60;99.90;;;;;;5098022;28;20449;-57
2021/12/08 10:03:22;;;;;;;24.93;9.47;;;2.70;99.90;;;;;;5096934;28;20470;-50
2021/12/08 10:05:50;;;;;;;34.13;10.77;;;2.70;99.90;;;;;;5096575;28;20443;-47
2021/12/08 10:08:18;;;;;;;27.37;10.00;;;2.70;99.90;;;;;;5095936;28;20470;-49
2021/12/08 10:10:46;;;;;;;27.03;12.43;;;2.70;99.90;;;;;;5096453;28;20481;-51
2021/12/08 10:13:16;;;;;;;24.27;8.93;;;2.80;99.90;;;;;;5096833;28;20443;-48
2021/12/08 10:15:44;;;;;;;22.43;8.33;;;2.80;99.90;;;;;;5096429;28;20469;-50
2021/12/08 10:18:11;;;;;;;17.43;8.60;;;2.80;99.90;;;;;;5096680;28;20435;-51
2021/12/08 10:20:44;;;;;;;30.00;9.53;;;2.80;99.90;;;;;;5096053;28;20454;-55
2021/12/08 10:23:20;;;;;;;16.50;9.20;;;2.80;99.90;;;;;;5096381;28;20427;-50
2021/12/08 10:25:50;;;;;;;35.37;13.23;;;2.90;99.90;;;;;;5096662;28;20470;-50
2021/12/08 10:28:19;;;;;;;23.17;9.80;;;3.00;99.90;;;;;;5096030;28;20466;-49
2021/12/08 10:30:51;;;;;;;14.53;8.63;;;3.00;99.90;;;;;;5096714;28;20490;-47
2021/12/08 10:33:52;;;;;;;21.67;10.23;;;3.00;99.90;;;;;;5096480;28;20427;-46
2021/12/08 10:36:43;;;;;;;27.50;11.47;;;2.90;99.90;;;;;;5096781;28;20487;-52
2021/12/08 10:39:15;;;;;;;24.53;9.63;;;2.90;99.90;;;;;;5096305;28;20450;-51
2021/12/08 10:41:49;;;;;;;29.27;12.20;;;2.80;99.90;;;;;;5096235;28;20431;-52
2021/12/08 10:44:22;;;;;;;16.43;9.57;;;2.90;99.90;;;;;;5095881;28;20457;-59
2021/12/08 10:46:54;;;;;;;27.23;10.27;;;2.90;99.90;;;;;;5096343;28;20434;-49
2021/12/08 10:49:27;;;;;;;24.73;10.97;;;2.90;99.90;;;;;;5096124;28;20450;-53
2021/12/08 10:54:39;;;;;;;25.00;10.00;;;2.90;99.90;;;;;;5095728;28;20477;-50
2021/12/08 10:57:23;;;;;;;22.90;12.00;;;3.00;99.90;;;;;;5095728;28;20451;-49
2021/12/08 11:00:00;;;;;;;19.47;8.73;;;3.00;99.90;;;;;;5095211;28;20501;-48
2021/12/08 11:02:42;;;;;;;27.87;9.93;;;3.20;99.90;;;;;;5095861;28;20423;-45
2021/12/08 11:05:39;;;;;;;22.67;10.53;;;3.20;99.90;;;;;;5094366;28;20473;-48
2021/12/08 11:08:11;;;;;;;26.50;9.70;;;3.30;99.90;;;;;;5093768;28;20423;-46
2021/12/08 11:10:42;;;;;;;18.17;9.33;;;3.30;99.90;;;;;;5092457;28;20486;-49
2021/12/08 11:13:12;;;;;;;22.77;11.17;;;3.20;99.90;;;;;;5091895;28;20427;-48
2021/12/08 11:15:40;;;;;;;21.83;11.40;;;3.20;99.90;;;;;;5091650;28;20470;-49
2021/12/08 11:18:21;;;;;;;17.87;8.27;;;3.20;99.90;;;;;;5091517;28;20448;-52
2021/12/08 11:20:58;;;;;;;25.67;9.77;;;3.20;99.90;;;;;;5090778;28;20438;-50
2021/12/08 11:23:40;;;;;;;20.53;9.00;;;3.30;99.90;;;;;;5090864;28;20423;-48
2021/12/08 11:26:15;;;;;;;19.93;9.33;;;3.40;99.90;;;;;;5091094;28;20442;-51
2021/12/08 11:28:42;;;;;;;27.33;10.13;;;3.40;99.90;;;;;;5091198;28;20460;-52
2021/12/08 11:31:12;;;;;;;20.43;10.00;;;3.40;99.90;;;;;;5090111;28;20475;-54
2021/12/08 11:33:42;;;;;;;23.77;9.73;;;3.40;99.90;;;;;;5090385;28;20469;-50
2021/12/08 11:36:13;;;;;;;17.57;8.07;;;3.40;99.90;;;;;;5091192;28;20451;-47
2021/12/08 11:38:41;;;;;;;21.13;11.10;;;3.30;99.90;;;;;;5092878;28;20462;-49
2021/12/08 11:41:23;;;;;;;21.67;11.90;;;3.30;99.90;;;;;;5092572;28;20470;-49
2021/12/08 11:43:55;;;;;;;23.53;10.97;;;3.20;99.90;;;;;;5092075;28;20461;-51
2021/12/08 11:46:23;;;;;;;27.70;10.17;;;3.20;99.90;;;;;;5091926;28;20423;-56
2021/12/08 11:49:04;;;;;;;15.80;9.43;;;3.20;99.90;;;;;;5093137;28;20515;-56
2021/12/08 11:51:35;;;;;;;22.43;9.50;;;3.30;99.90;;;;;;5091817;28;20463;-57
2021/12/08 11:54:03;;;;;;;26.70;10.67;;;3.30;99.90;;;;;;5081461;28;20473;-61
2021/12/08 11:56:42;;;;;;;26.00;9.43;;;3.30;99.90;;;;;;5085580;28;20479;-49
2021/12/08 11:59:11;;;;;;;19.93;8.77;;;3.40;99.90;;;;;;5099091;28;20434;-55
2021/12/08 12:01:38;;;;;;;22.20;8.63;;;3.40;99.90;;;;;;5095568;28;20462;-49
2021/12/08 12:04:10;;;;;;;19.60;10.57;;;3.40;99.90;;;;;;5095302;28;20475;-52
2021/12/08 12:06:38;;;;;;;24.40;9.90;;;3.40;99.90;;;;;;5094981;28;20508;-54
2021/12/08 12:09:07;;;;;;;35.63;11.13;;;3.40;99.90;;;;;;5094006;28;20461;-51
2021/12/08 12:11:34;;;;;;;24.73;10.17;;;3.50;99.90;;;;;;5093985;28;20478;-47
2021/12/08 12:14:03;;;;;;;21.77;10.00;;;3.50;99.90;;;;;;5094327;28;20458;-51
2021/12/08 12:16:31;;;;;;;23.23;10.50;;;3.40;99.90;;;;;;5094142;28;20451;-50
2021/12/08 12:19:04;;;;;;;21.83;9.03;;;3.40;99.90;;;;;;5093822;28;20510;-50
2021/12/08 12:21:40;;;;;;;24.00;10.53;;;3.30;99.90;;;;;;5094318;28;20418;-47
2021/12/08 12:24:27;;;;;;;34.00;12.47;;;3.40;99.90;;;;;;5094706;28;20463;-48
2021/12/08 12:27:09;;;;;;;27.43;9.43;;;3.40;99.90;;;;;;5094155;28;20442;-48
2021/12/08 12:29:56;;;;;;;30.13;10.37;;;3.40;99.90;;;;;;5098196;28;20462;-50
2021/12/08 12:32:27;;;;;;;22.07;8.67;;;3.40;99.90;;;;;;5099445;28;20458;-48
2021/12/08 12:35:10;;;;;;;23.17;10.30;;;3.30;99.90;;;;;;5099115;28;20459;-49
2021/12/08 12:37:40;;;;;;;22.93;10.43;;;3.30;99.90;;;;;;5099309;28;20430;-51
2021/12/08 12:40:13;;;;;;;21.27;8.53;;;3.40;99.90;;;;;;5096474;28;21275;-50
2021/12/08 12:42:45;;;;;;;23.47;7.37;;;3.40;99.90;;;;;;5094392;28;20426;-45
2021/12/08 12:45:14;;;;;;;36.47;13.67;;;3.40;99.90;;;;;;5094001;28;20465;-48
2021/12/08 12:47:43;;;;;;;18.17;9.57;;;3.40;99.90;;;;;;5094175;28;20478;-53
2021/12/08 12:50:21;;;;;;;26.97;8.10;;;3.50;99.90;;;;;;5093773;28;20533;-47
2021/12/08 12:52:54;;;;;;;23.73;8.60;;;3.50;99.90;;;;;;5092919;28;20473;-49
2021/12/08 12:55:24;;;;;;;19.00;7.77;;;3.50;99.90;;;;;;5092896;28;20467;-50
2021/12/08 12:58:12;;;;;;;22.60;9.90;;;3.50;99.90;;;;;;5093100;28;20477;-50
2021/12/08 13:00:45;;;;;;;16.47;6.70;;;3.50;99.90;;;;;;5091863;28;20454;-50
2021/12/08 13:03:42;;;;;;;21.27;9.40;;;3.50;99.90;;;;;;5093444;28;20547;-51
2021/12/08 13:06:11;;;;;;;28.43;9.40;;;3.40;99.90;;;;;;5092670;28;20447;-46
2021/12/08 13:08:40;;;;;;;27.13;9.13;;;3.40;99.90;;;;;;5091348;28;20554;-49
2021/12/08 13:11:34;;;;;;;24.00;10.10;;;3.30;99.90;;;;;;5092358;28;20562;-48
2021/12/08 13:14:03;;;;;;;20.53;8.93;;;3.40;99.90;;;;;;5091980;28;20479;-51
2021/12/08 13:16:35;;;;;;;27.77;10.93;;;3.40;99.90;;;;;;5092573;28;20466;-47
2021/12/08 13:19:04;;;;;;;24.30;9.23;;;3.30;99.90;;;;;;5092684;28;20419;-53
2021/12/08 13:21:39;;;;;;;31.10;12.47;;;3.30;99.90;;;;;;5092909;28;20450;-49
2021/12/08 13:24:06;;;;;;;20.20;10.33;;;3.30;99.90;;;;;;5093474;28;20449;-48
2021/12/08 13:26:47;;;;;;;26.43;10.10;;;3.20;99.90;;;;;;5092912;28;20570;-50
2021/12/08 13:29:21;;;;;;;24.90;11.47;;;3.20;99.90;;;;;;5094082;28;20446;-51
2021/12/08 13:31:59;;;;;;;15.77;7.00;;;3.20;99.90;;;;;;5093529;28;20496;-52
2021/12/08 13:34:33;;;;;;;16.70;10.03;;;3.20;99.90;;;;;;5092816;28;20431;-53
2021/12/08 13:37:15;;;;;;;20.00;7.90;;;3.20;99.90;;;;;;5097817;28;20464;-45
2021/12/08 13:39:43;;;;;;;21.73;7.60;;;3.20;99.90;;;;;;5093786;28;20412;-50